Time;durP1;ratioP1;P1;durP2;ratioP2;P2;SDS_P1;SDS_P2;PMS_P1;PMS_P2;Temp;Humidity;BMP_temperature;BMP_pressure;BME280_temperature;BME280_humidity;BME280_pressure;Samples;Min_cycle;Max_cycle;Signal;HPM_P1;HPM_P2
2023/03/09 00:00:15;;;;;;;10.73;5.93;;;;;;;-144.73;84.96;54438.50;4976053;28;20033;-71
2023/03/09 00:02:41;;;;;;;12.10;5.77;;;;;;;-144.73;85.81;54440.53;4975703;28;20034;-72
2023/03/09 00:05:10;;;;;;;19.23;7.20;;;;;;;-144.73;85.64;54448.75;4975514;28;20507;-71
2023/03/09 00:07:36;;;;;;;11.20;6.20;;;;;;;-144.73;85.02;54461.06;4991783;28;20037;-71
2023/03/09 00:10:03;;;;;;;12.00;6.47;;;;;;;-144.73;84.99;54452.84;4982446;28;20018;-71
2023/03/09 00:12:28;;;;;;;20.07;6.93;;;;;;;-144.73;84.88;54432.31;4976679;28;20054;-71
2023/03/09 00:14:55;;;;;;;13.83;7.13;;;;;;;-144.73;85.07;54456.97;4983436;28;20049;-71
2023/03/09 00:17:20;;;;;;;13.17;6.57;;;;;;;-144.73;84.78;54413.84;4991250;28;20054;-72
2023/03/09 00:19:46;;;;;;;10.50;6.27;;;;;;;-144.73;85.13;54465.16;4975494;28;20064;-72
2023/03/09 00:22:11;;;;;;;12.40;6.40;;;;;;;-144.73;84.78;54448.75;4991567;28;20101;-72
2023/03/09 00:24:45;;;;;;;12.10;6.40;;;;;;;-144.73;84.55;54436.44;4999618;28;20018;-72
2023/03/09 00:27:11;;;;;;;14.80;6.63;;;;;;;-144.73;84.62;54420.00;4975608;28;20058;-72
2023/03/09 00:29:36;;;;;;;11.27;5.67;;;;;;;-144.73;84.86;54450.81;4991880;28;20080;-72
2023/03/09 00:32:02;;;;;;;11.57;6.03;;;;;;;-144.73;85.03;54432.31;4975394;28;20023;-72
2023/03/09 00:34:27;;;;;;;13.60;7.17;;;;;;;-144.73;85.15;54452.84;4975120;28;20034;-71
2023/03/09 00:36:53;;;;;;;12.70;6.73;;;;;;;-144.73;85.24;54465.16;4974983;28;20034;-71
2023/03/09 00:39:18;;;;;;;12.93;5.57;;;;;;;-144.73;85.38;54469.28;4991937;28;20026;-71
2023/03/09 00:41:44;;;;;;;14.53;6.37;;;;;;;-144.73;85.64;54409.75;4991236;28;20490;-71
2023/03/09 00:44:11;;;;;;;17.63;6.90;;;;;;;-144.73;86.00;54481.59;4975063;28;20022;-71
2023/03/09 00:46:37;;;;;;;9.87;5.70;;;;;;;-144.73;85.90;54469.28;4974650;28;20026;-71
2023/03/09 00:49:05;;;;;;;14.43;6.90;;;;;;;-144.73;86.26;54432.31;4991091;28;20024;-71
2023/03/09 00:51:34;;;;;;;12.87;6.40;;;;;;;-144.73;85.81;54424.13;4956239;28;20058;-71
2023/03/09 00:53:59;;;;;;;16.63;6.13;;;;;;;-144.73;86.18;54440.53;4969206;28;20022;-71
2023/03/09 00:56:27;;;;;;;14.33;6.87;;;;;;;-144.73;86.37;54446.69;4976248;28;20566;-72
2023/03/09 00:58:53;;;;;;;14.50;6.57;;;;;;;-144.73;86.01;54469.28;4981632;28;20026;-72
2023/03/09 01:01:19;;;;;;;15.67;6.90;;;;;;;-144.73;86.32;54452.84;4982229;28;20032;-72
2023/03/09 01:03:45;;;;;;;14.00;6.80;;;;;;;-144.73;86.14;54407.69;4978557;28;20021;-72
2023/03/09 01:06:11;;;;;;;10.50;6.00;;;;;;;-144.73;86.48;54444.66;4978590;28;20102;-72
2023/03/09 01:08:37;;;;;;;12.27;5.50;;;;;;;-144.73;87.81;54477.47;4978090;28;20022;-72
2023/03/09 01:11:10;;;;;;;15.97;6.77;;;;;;;-144.73;86.98;54473.38;4987557;28;20042;-72
2023/03/09 01:13:35;;;;;;;12.73;6.73;;;;;;;-144.73;87.21;54465.16;4974900;28;20018;-72
2023/03/09 01:16:02;;;;;;;16.67;7.37;;;;;;;-144.73;86.51;54461.06;4997618;28;20030;-72
2023/03/09 01:18:27;;;;;;;11.97;5.93;;;;;;;-144.73;86.46;54444.66;4975979;28;20030;-72
2023/03/09 01:20:53;;;;;;;17.50;7.37;;;;;;;-144.73;87.64;54452.84;4982417;28;20026;-72
2023/03/09 01:23:18;;;;;;;15.93;6.83;;;;;;;-144.73;86.77;54434.38;4995254;28;20026;-72
2023/03/09 01:25:44;;;;;;;13.17;6.83;;;;;;;-144.73;87.31;54448.75;4991013;28;20031;-72
2023/03/09 01:28:10;;;;;;;17.33;6.27;;;;;;;-144.73;86.54;54473.38;4990922;28;20030;-71
2023/03/09 01:30:35;;;;;;;18.10;6.60;;;;;;;-144.73;86.78;54444.66;4992066;28;20022;-71
2023/03/09 01:33:00;;;;;;;14.67;6.70;;;;;;;-144.73;86.40;54452.84;4997570;28;20052;-71
2023/03/09 01:35:26;;;;;;;11.83;6.33;;;;;;;-144.73;86.21;54483.66;4976215;28;20022;-71
2023/03/09 01:37:51;;;;;;;13.80;6.57;;;;;;;-144.73;86.24;54459.00;4993654;28;20151;-71
2023/03/09 01:40:22;;;;;;;10.53;6.17;;;;;;;-144.73;86.93;54481.59;4974786;28;20030;-72
2023/03/09 01:42:59;;;;;;;11.88;6.15;;;;;;;-144.73;86.25;54411.81;4984214;28;20029;-72
2023/03/09 01:45:24;;;;;;;11.27;5.70;;;;;;;-144.73;87.00;54442.59;4990640;28;20026;-72
2023/03/09 01:47:51;;;;;;;12.60;6.20;;;;;;;-144.73;86.92;54473.38;4990053;28;20458;-72
2023/03/09 01:50:21;;;;;;;15.27;6.53;;;;;;;-144.73;87.29;54452.84;4982267;28;20067;-72
2023/03/09 01:52:49;;;;;;;13.30;6.40;;;;;;;-144.73;87.20;54436.44;4966613;28;20034;-72
2023/03/09 01:55:21;;;;;;;14.27;6.73;;;;;;;-144.73;87.25;54444.66;4973644;28;20438;-72
2023/03/09 01:57:51;;;;;;;14.57;6.70;;;;;;;-144.73;86.41;54461.06;4990399;28;20039;-71
2023/03/09 02:00:19;;;;;;;14.67;6.07;;;;;;;-144.73;86.80;54459.00;4974354;28;20064;-72
2023/03/09 02:02:52;;;;;;;12.87;5.77;;;;;;;-144.73;87.11;54461.06;4991316;28;20057;-71
2023/03/09 02:05:23;;;;;;;10.80;5.63;;;;;;;-144.73;87.45;54452.84;4990140;28;20025;-71
2023/03/09 02:07:51;;;;;;;13.77;6.78;;;;;;;-144.73;86.85;54407.69;4974316;28;20026;-70
2023/03/09 02:10:22;;;;;;;14.27;6.83;;;;;;;-144.73;87.39;54452.84;4966071;28;20023;-71
2023/03/09 02:12:52;;;;;;;17.42;6.80;;;;;;;-144.73;87.03;54436.44;4998041;28;20087;-71
2023/03/09 02:15:20;;;;;;;12.37;6.27;;;;;;;-144.73;87.12;54436.44;4977523;28;20464;-71
2023/03/09 02:17:46;;;;;;;13.33;6.77;;;;;;;-144.73;86.92;54407.69;4985110;28;20034;-71
2023/03/09 02:20:19;;;;;;;12.77;6.03;;;;;;;-144.73;86.67;54444.66;4981446;28;20109;-71
2023/03/09 02:22:47;;;;;;;12.30;6.40;;;;;;;-144.73;87.16;54432.31;4998288;28;20748;-71
2023/03/09 02:25:22;;;;;;;18.17;6.87;;;;;;;-144.73;86.70;54465.16;4981950;28;20031;-71
2023/03/09 02:27:49;;;;;;;9.53;6.33;;;;;;;-144.73;86.41;54440.53;4977375;28;20033;-71
2023/03/09 02:30:14;;;;;;;9.87;5.93;;;;;;;-144.73;86.80;54463.13;4994027;28;20392;-71
2023/03/09 02:32:39;;;;;;;14.40;6.47;;;;;;;-144.73;87.08;54428.22;4994620;28;20042;-71
2023/03/09 02:35:09;;;;;;;15.47;6.90;;;;;;;-144.73;87.33;54420.00;5001816;28;20108;-71
2023/03/09 02:37:38;;;;;;;12.93;7.00;;;;;;;-144.73;87.41;54424.13;4976963;28;20074;-71
2023/03/09 02:40:10;;;;;;;10.83;6.07;;;;;;;-144.73;87.21;54440.53;4977801;28;20030;-71
2023/03/09 02:42:38;;;;;;;13.10;6.57;;;;;;;-144.73;88.29;54456.97;4977299;28;20038;-71
2023/03/09 02:45:05;;;;;;;15.93;6.70;;;;;;;-144.73;88.09;54444.66;4993584;28;20026;-71
2023/03/09 02:47:31;;;;;;;9.97;6.33;;;;;;;-144.73;88.11;54436.44;4992549;28;20041;-71
2023/03/09 02:49:56;;;;;;;13.90;6.53;;;;;;;-144.73;88.29;54444.66;4977294;28;20026;-71
2023/03/09 02:52:22;;;;;;;12.17;6.53;;;;;;;-144.73;87.27;54415.91;4984991;28;20097;-71
2023/03/09 02:54:47;;;;;;;10.90;7.17;;;;;;;-144.73;87.54;54444.66;4985350;28;20068;-71
2023/03/09 02:57:13;;;;;;;14.80;7.57;;;;;;;-144.73;88.08;54469.28;4976658;28;20087;-71
2023/03/09 02:59:39;;;;;;;12.10;6.30;;;;;;;-144.73;88.06;54461.06;4992915;28;20032;-71
2023/03/09 03:02:04;;;;;;;13.97;7.07;;;;;;;-144.73;88.41;54456.97;4993093;28;20042;-71
2023/03/09 03:04:30;;;;;;;16.37;7.73;;;;;;;-144.73;88.33;54444.66;4993950;28;20050;-71
2023/03/09 03:06:55;;;;;;;12.60;7.00;;;;;;;-144.73;88.56;54411.81;4997394;28;20026;-72
2023/03/09 03:09:21;;;;;;;11.50;6.87;;;;;;;-144.73;88.09;54424.13;4988779;28;20030;-71
2023/03/09 03:11:46;;;;;;;13.67;6.23;;;;;;;-144.73;87.88;54448.75;4996990;28;20036;-71
2023/03/09 03:14:12;;;;;;;23.10;7.00;;;;;;;-144.73;87.44;54469.28;4989238;28;20030;-71
2023/03/09 03:16:37;;;;;;;15.47;7.37;;;;;;;-144.73;87.57;54440.53;4992031;28;20105;-71
2023/03/09 03:19:02;;;;;;;17.70;6.73;;;;;;;-144.73;88.79;54436.44;4976908;28;20077;-71
2023/03/09 03:21:28;;;;;;;17.03;7.97;;;;;;;-144.73;88.71;54463.13;4992599;28;20034;-71
2023/03/09 03:23:54;;;;;;;17.07;7.30;;;;;;;-144.73;88.71;54448.75;4976183;28;20089;-71
2023/03/09 03:26:19;;;;;;;11.57;7.40;;;;;;;-144.73;88.20;54422.06;4984623;28;20038;-71
2023/03/09 03:28:44;;;;;;;14.77;7.77;;;;;;;-144.73;88.03;54440.53;4992701;28;20121;-71
2023/03/09 03:31:11;;;;;;;14.20;7.80;;;;;;;-144.73;87.78;54452.84;4975944;28;20041;-71
2023/03/09 03:33:36;;;;;;;19.20;8.70;;;;;;;-144.73;88.08;54485.69;5000751;28;20447;-71
2023/03/09 03:36:02;;;;;;;16.90;7.40;;;;;;;-144.73;88.30;54438.50;4975814;28;20173;-71
2023/03/09 03:38:28;;;;;;;19.93;8.20;;;;;;;-144.73;88.31;54481.59;4976875;28;20030;-71
2023/03/09 03:40:53;;;;;;;17.87;7.97;;;;;;;-144.73;89.45;54436.44;4976008;28;20026;-71
2023/03/09 03:43:18;;;;;;;16.53;8.13;;;;;;;-144.73;89.44;54436.44;4988850;28;20067;-71
2023/03/09 03:45:43;;;;;;;16.97;7.40;;;;;;;-144.73;89.18;54469.28;4974990;28;20034;-71
2023/03/09 03:48:09;;;;;;;17.20;8.20;;;;;;;-144.73;89.07;54452.84;4976167;28;20038;-71
2023/03/09 03:50:34;;;;;;;20.80;8.97;;;;;;;-144.73;89.03;54469.28;4985403;28;20046;-71
2023/03/09 03:53:00;;;;;;;22.77;8.43;;;;;;;-144.73;88.92;54436.44;4999067;28;20125;-71
2023/03/09 03:55:26;;;;;;;14.00;8.27;;;;;;;-144.73;88.70;54473.38;4975904;28;20038;-71
2023/03/09 03:57:51;;;;;;;14.40;7.57;;;;;;;-144.73;88.33;54469.28;4999834;28;20089;-71
2023/03/09 04:00:19;;;;;;;13.60;7.70;;;;;;;-144.73;88.26;54465.16;4992425;28;20034;-71
2023/03/09 04:02:44;;;;;;;17.47;9.00;;;;;;;-144.73;88.79;54473.38;4992714;28;20034;-71
2023/03/09 04:05:10;;;;;;;19.90;8.57;;;;;;;-144.73;88.71;54469.28;4975900;28;20030;-71
2023/03/09 04:07:35;;;;;;;17.07;8.70;;;;;;;-144.73;88.92;54461.06;5001179;28;20365;-71
2023/03/09 04:10:00;;;;;;;15.97;8.90;;;;;;;-144.73;89.69;54432.31;5004676;28;20053;-71
2023/03/09 04:12:26;;;;;;;17.83;8.63;;;;;;;-144.73;89.11;54456.97;4994928;28;20050;-71
2023/03/09 04:14:51;;;;;;;23.37;8.67;;;;;;;-144.73;89.14;54467.22;4975281;28;20557;-71
2023/03/09 04:17:16;;;;;;;22.47;9.23;;;;;;;-144.73;89.04;54424.13;4968503;28;20094;-71
2023/03/09 04:19:42;;;;;;;15.63;9.13;;;;;;;-144.73;89.37;54456.97;4975443;28;20045;-71
2023/03/09 04:22:09;;;;;;;14.07;8.17;;;;;;;-144.73;89.17;54489.81;4975641;28;20034;-71
2023/03/09 04:24:34;;;;;;;18.60;9.10;;;;;;;-144.73;88.93;54489.81;4991574;28;20026;-71
2023/03/09 04:27:00;;;;;;;16.33;9.63;;;;;;;-144.73;88.76;54424.13;4992369;28;20049;-71
2023/03/09 04:29:25;;;;;;;16.40;9.17;;;;;;;-144.73;88.85;54450.81;4997330;28;20029;-71
2023/03/09 04:31:51;;;;;;;19.27;9.37;;;;;;;-144.73;88.86;54454.91;4975137;28;20045;-71
2023/03/09 04:34:16;;;;;;;17.53;9.60;;;;;;;-144.73;88.69;54434.38;4983071;28;20034;-71
2023/03/09 04:36:42;;;;;;;18.53;9.40;;;;;;;-144.73;89.27;54420.00;4974782;28;20043;-71
2023/03/09 04:39:07;;;;;;;20.27;10.00;;;;;;;-144.73;89.34;54481.59;4983548;28;20065;-71
2023/03/09 04:41:33;;;;;;;21.40;11.13;;;;;;;-144.73;88.71;54475.44;4975326;28;20061;-71
2023/03/09 04:43:59;;;;;;;18.90;9.23;;;;;;;-144.73;89.40;54473.38;4998148;28;20022;-71
2023/03/09 04:46:24;;;;;;;22.87;10.83;;;;;;;-144.73;89.34;54477.47;4994768;28;20034;-71
2023/03/09 04:48:50;;;;;;;20.03;10.00;;;;;;;-144.73;89.18;54456.97;4994913;28;20032;-71
2023/03/09 04:51:15;;;;;;;21.10;10.70;;;;;;;-144.73;89.07;54456.97;5003857;28;20122;-71
2023/03/09 04:53:40;;;;;;;20.80;10.20;;;;;;;-144.73;89.11;54440.53;5001616;28;20038;-71
2023/03/09 04:56:06;;;;;;;19.03;9.83;;;;;;;-144.73;89.06;54456.97;4982293;28;20121;-71
2023/03/09 04:58:31;;;;;;;21.37;10.47;;;;;;;-144.73;88.93;54399.50;4974917;28;20483;-71
2023/03/09 05:00:57;;;;;;;20.10;10.10;;;;;;;-144.73;88.85;54461.06;4990742;28;20033;-72
2023/03/09 05:03:22;;;;;;;16.80;9.70;;;;;;;-144.73;88.97;54502.13;4975269;28;20029;-71
2023/03/09 05:05:47;;;;;;;16.70;9.77;;;;;;;-144.73;88.98;54444.66;4974388;28;20026;-71
2023/03/09 05:08:13;;;;;;;17.97;10.17;;;;;;;-144.73;88.59;54477.47;4991243;28;20022;-71
2023/03/09 05:10:38;;;;;;;21.03;10.17;;;;;;;-144.73;87.67;54473.38;4974843;28;20097;-71
2023/03/09 05:13:03;;;;;;;16.63;9.10;;;;;;;-144.73;87.97;54465.16;4982265;28;20046;-72
2023/03/09 05:15:29;;;;;;;25.90;11.00;;;;;;;-144.73;88.79;54426.16;4974637;28;20113;-71
2023/03/09 05:17:54;;;;;;;25.73;11.23;;;;;;;-144.73;88.84;54387.19;4987345;28;20169;-71
2023/03/09 05:20:20;;;;;;;21.13;10.57;;;;;;;-144.73;87.82;54452.84;4979360;28;20026;-71
2023/03/09 05:22:45;;;;;;;20.40;10.93;;;;;;;-144.73;87.70;54485.69;4974299;28;20049;-71
2023/03/09 05:25:10;;;;;;;28.33;12.27;;;;;;;-144.73;88.34;54452.84;4980037;28;20438;-71
2023/03/09 05:27:36;;;;;;;23.87;11.83;;;;;;;-144.73;89.01;54444.66;4977627;28;20249;-71
2023/03/09 05:30:03;;;;;;;20.50;11.93;;;;;;;-144.73;88.63;54477.47;4998948;28;20065;-71
2023/03/09 05:32:28;;;;;;;26.60;11.73;;;;;;;-144.73;89.21;54469.28;4973990;28;20070;-71
2023/03/09 05:34:53;;;;;;;25.83;13.63;;;;;;;-144.73;89.40;54461.06;4973980;28;20053;-71
2023/03/09 05:37:19;;;;;;;22.63;12.83;;;;;;;-144.73;89.71;54454.91;4974184;28;20488;-71
2023/03/09 05:39:44;;;;;;;26.17;12.63;;;;;;;-144.73;89.74;54440.53;4982304;28;20125;-72
2023/03/09 05:42:10;;;;;;;30.00;14.35;;;;;;;-144.73;91.07;54448.75;4974003;28;20125;-71
2023/03/09 05:44:35;;;;;;;22.40;12.27;;;;;;;-144.73;91.08;54452.84;4982073;28;20092;-71
2023/03/09 05:47:00;;;;;;;29.73;13.93;;;;;;;-144.73;90.99;54473.38;4977979;28;20109;-72
2023/03/09 05:49:30;;;;;;;25.40;14.70;;;;;;;-144.73;91.32;54463.13;4998744;28;20056;-71
2023/03/09 05:51:57;;;;;;;32.63;14.90;;;;;;;-144.73;92.25;54489.81;4978096;28;20038;-71
2023/03/09 05:54:22;;;;;;;28.57;15.60;;;;;;;-144.73;92.39;54491.84;4995375;28;20034;-72
2023/03/09 05:56:48;;;;;;;27.97;15.10;;;;;;;-144.73;92.32;54448.75;4977732;28;20065;-71
2023/03/09 05:59:13;;;;;;;24.47;12.33;;;;;;;-144.73;92.54;54444.66;4978529;28;20034;-71
2023/03/09 06:01:39;;;;;;;26.60;13.80;;;;;;;-144.73;93.12;54452.84;4985911;28;20065;-71
2023/03/09 06:04:04;;;;;;;23.00;13.23;;;;;;;-144.73;92.75;54424.13;4977961;28;20034;-71
2023/03/09 06:06:30;;;;;;;23.60;13.20;;;;;;;-144.73;92.43;54485.69;4995778;28;20089;-71
2023/03/09 06:08:55;;;;;;;26.40;14.30;;;;;;;-144.73;92.14;54440.53;4981581;28;20087;-71
2023/03/09 06:11:21;;;;;;;32.83;15.00;;;;;;;-144.73;92.14;54440.53;4999883;28;20069;-71
2023/03/09 06:13:47;;;;;;;32.20;14.67;;;;;;;-144.73;92.16;54436.44;4976904;28;20034;-71
2023/03/09 06:16:15;;;;;;;27.77;14.73;;;;;;;-144.73;92.84;54436.44;4976891;28;20038;-71
2023/03/09 06:18:41;;;;;;;26.53;13.93;;;;;;;-144.73;92.68;54469.28;4977357;28;20432;-71
2023/03/09 06:21:07;;;;;;;29.77;15.13;;;;;;;-144.73;92.53;54440.53;4994872;28;20049;-71
2023/03/09 06:23:35;;;;;;;30.17;14.93;;;;;;;-144.73;92.64;54452.84;4977776;28;20030;-71
2023/03/09 06:26:02;;;;;;;25.40;14.00;;;;;;;-144.73;92.33;54465.16;4994476;28;20026;-71
2023/03/09 06:28:27;;;;;;;32.77;16.57;;;;;;;-144.73;92.16;54436.44;4987216;28;20049;-71
2023/03/09 06:30:53;;;;;;;28.23;14.47;;;;;;;-144.73;92.00;54448.75;4980758;28;20022;-69
2023/03/09 06:33:18;;;;;;;29.50;14.37;;;;;;;-144.73;91.78;54473.38;4977571;28;20039;-71
2023/03/09 06:35:43;;;;;;;30.47;14.50;;;;;;;-144.73;91.84;54461.06;4994336;28;20093;-70
2023/03/09 06:38:09;;;;;;;28.30;15.50;;;;;;;-144.73;91.95;54467.22;4977581;28;20022;-70
2023/03/09 06:40:34;;;;;;;28.27;14.90;;;;;;;-144.73;91.78;54452.84;4977333;28;20069;-71
2023/03/09 06:43:00;;;;;;;33.47;15.87;;;;;;;-144.73;92.14;54467.22;4977062;28;20068;-70
2023/03/09 06:45:25;;;;;;;30.27;13.23;;;;;;;-144.73;92.33;54454.91;4976824;28;20125;-71
2023/03/09 06:47:56;;;;;;;38.63;15.17;;;;;;;-144.73;92.16;54473.38;4976578;28;20049;-71
2023/03/09 06:50:23;;;;;;;29.00;15.70;;;;;;;-144.73;91.73;54465.16;4977246;28;20557;-71
2023/03/09 06:52:48;;;;;;;29.70;16.10;;;;;;;-144.73;91.70;54456.97;4976823;28;20034;-71
2023/03/09 06:55:13;;;;;;;35.50;15.43;;;;;;;-144.73;91.18;54436.44;4977117;28;20121;-71
2023/03/09 06:57:39;;;;;;;30.77;13.93;;;;;;;-144.73;91.50;54452.84;5001187;28;20064;-71
2023/03/09 07:00:06;;;;;;;35.17;15.70;;;;;;;-144.73;91.81;54432.31;4972290;28;20609;-71
2023/03/09 07:02:31;;;;;;;28.47;15.17;;;;;;;-144.73;91.29;54444.66;4972650;28;20109;-71
2023/03/09 07:04:57;;;;;;;24.60;13.47;;;;;;;-144.73;90.84;54473.38;4977044;28;20121;-71
2023/03/09 07:07:23;;;;;;;30.13;15.37;;;;;;;-144.73;91.05;54469.28;4976584;28;20034;-71
2023/03/09 07:09:48;;;;;;;46.17;15.43;;;;;;;-144.73;91.47;54436.44;4976929;28;20073;-71
2023/03/09 07:12:13;;;;;;;34.87;15.50;;;;;;;-144.73;91.52;54456.97;4993890;28;20058;-71
2023/03/09 07:14:38;;;;;;;28.33;14.97;;;;;;;-144.73;90.70;54424.13;4994330;28;20062;-71
2023/03/09 07:17:04;;;;;;;33.87;15.03;;;;;;;-144.73;90.60;54473.38;5001214;28;20137;-71
2023/03/09 07:19:29;;;;;;;33.63;16.03;;;;;;;-144.73;90.28;54440.53;4980380;28;20026;-68
2023/03/09 07:21:55;;;;;;;27.47;15.23;;;;;;;-144.73;90.23;54452.84;4978668;28;20069;-68
2023/03/09 07:24:21;;;;;;;33.20;15.40;;;;;;;-144.73;90.72;54456.97;4977317;28;20030;-68
2023/03/09 07:26:48;;;;;;;31.00;14.73;;;;;;;-144.73;90.00;54456.97;4978060;28;20101;-68
2023/03/09 07:29:14;;;;;;;30.53;13.70;;;;;;;-144.73;89.13;54448.75;4996550;28;20133;-68
2023/03/09 07:31:40;;;;;;;28.80;13.63;;;;;;;-144.73;88.87;54440.53;4996067;28;20062;-68
2023/03/09 07:34:05;;;;;;;38.83;15.97;;;;;;;-144.73;88.59;54452.84;4996681;28;20036;-68
2023/03/09 07:36:31;;;;;;;30.67;15.48;;;;;;;-144.73;87.72;54452.84;4980900;28;20042;-68
2023/03/09 07:38:56;;;;;;;26.67;14.43;;;;;;;-144.73;87.63;54440.53;4976862;28;20065;-70
2023/03/09 07:41:22;;;;;;;37.80;15.53;;;;;;;-144.73;87.64;54461.06;4976413;28;20181;-68
2023/03/09 07:43:47;;;;;;;34.10;14.23;;;;;;;-144.73;87.31;54432.31;4976910;28;20030;-68
2023/03/09 07:46:15;;;;;;;28.48;14.02;;;;;;;-144.73;87.13;54489.81;4976489;28;20030;-68
2023/03/09 07:48:43;;;;;;;29.48;13.38;;;;;;;-144.73;87.30;54469.28;4985420;28;20030;-67
2023/03/09 07:51:10;;;;;;;26.13;12.30;;;;;;;-144.73;86.62;54420.00;4995370;28;20045;-66
2023/03/09 07:53:38;;;;;;;29.50;14.35;;;;;;;-144.73;86.53;54461.06;4990843;28;20035;-67
2023/03/09 07:56:04;;;;;;;26.45;13.60;;;;;;;-144.73;86.49;54452.84;4967809;28;20924;-67
2023/03/09 07:58:31;;;;;;;31.73;13.43;;;;;;;-144.73;86.15;54489.81;4971353;28;20046;-67
2023/03/09 08:00:57;;;;;;;27.58;13.30;;;;;;;-144.73;84.92;54444.66;4970880;28;20030;-67
2023/03/09 08:03:23;;;;;;;23.35;12.85;;;;;;;-144.73;84.91;54454.91;4972339;28;20033;-67
2023/03/09 08:05:49;;;;;;;27.55;13.98;;;;;;;-144.73;85.07;54424.13;4972404;28;20054;-67
2023/03/09 08:08:16;;;;;;;21.40;12.50;;;;;;;-144.73;84.96;54465.16;5007456;28;20021;-68
2023/03/09 08:10:47;;;;;;;33.55;13.20;;;;;;;-144.73;84.68;54452.84;4982818;28;20033;-67
2023/03/09 08:13:13;;;;;;;28.80;13.48;;;;;;;-144.73;83.43;54450.81;4988089;28;20042;-67
2023/03/09 08:15:39;;;;;;;22.98;12.48;;;;;;;-144.73;83.82;54420.00;4971341;28;20364;-67
2023/03/09 08:18:05;;;;;;;27.20;13.93;;;;;;;-144.73;83.68;54469.28;4972213;28;20111;-67
2023/03/09 08:20:30;;;;;;;26.70;12.88;;;;;;;-144.73;83.83;54477.47;4976100;28;20060;-67
2023/03/09 08:22:56;;;;;;;27.38;13.18;;;;;;;-144.73;83.40;54495.97;4991875;28;20121;-67
2023/03/09 08:25:22;;;;;;;30.75;13.63;;;;;;;-144.73;83.09;54477.47;4990932;28;20030;-67
2023/03/09 08:27:48;;;;;;;27.85;13.23;;;;;;;-144.73;82.28;54432.31;4990890;28;20030;-68
2023/03/09 08:30:16;;;;;;;26.88;14.18;;;;;;;-144.73;82.45;54467.22;4990902;28;20049;-67
2023/03/09 08:32:44;;;;;;;26.30;12.50;;;;;;;-144.73;81.68;54452.84;5005977;28;20034;-67
2023/03/09 08:35:09;;;;;;;23.35;12.65;;;;;;;-144.73;81.79;54442.59;4988868;28;20030;-66
2023/03/09 08:37:35;;;;;;;26.75;13.05;;;;;;;-144.73;81.98;54461.06;4987197;28;20050;-69
2023/03/09 08:40:00;;;;;;;26.98;11.60;;;;;;;-144.73;81.30;54465.16;4971354;28;20066;-69
2023/03/09 08:42:26;;;;;;;21.38;11.80;;;;;;;-144.73;80.36;54452.84;4972300;28;20045;-67
2023/03/09 08:44:52;;;;;;;21.70;11.85;;;;;;;-144.73;81.56;54440.53;4971815;28;20045;-68
2023/03/09 08:47:18;;;;;;;25.25;12.95;;;;;;;-144.73;80.94;54477.47;5007785;28;20061;-68
2023/03/09 08:49:43;;;;;;;21.92;11.30;;;;;;;-144.73;80.03;54452.84;4976714;28;20053;-68
2023/03/09 08:52:08;;;;;;;17.98;10.52;;;;;;;-144.73;80.34;54424.13;4988161;28;20073;-69
2023/03/09 08:54:34;;;;;;;24.02;11.05;;;;;;;-144.73;80.04;54452.84;4971766;28;20032;-67
2023/03/09 08:56:59;;;;;;;22.65;11.65;;;;;;;-144.73;79.41;54436.44;4987496;28;20056;-68
2023/03/09 08:59:26;;;;;;;22.42;11.85;;;;;;;-144.73;78.49;54428.22;4972701;28;20046;-67
2023/03/09 09:01:52;;;;;;;24.00;11.05;;;;;;;-144.73;78.71;54465.16;4993262;28;20109;-67
2023/03/09 09:04:17;;;;;;;19.63;10.48;;;;;;;-144.73;77.29;54473.38;4988726;28;20034;-67
2023/03/09 09:06:43;;;;;;;20.60;11.15;;;;;;;-144.73;77.17;54469.28;4989757;28;20041;-67
2023/03/09 09:09:09;;;;;;;24.73;11.68;;;;;;;-144.73;78.09;54456.97;4979983;28;20026;-68
2023/03/09 09:11:34;;;;;;;20.23;10.30;;;;;;;-144.73;77.54;54454.91;4971572;28;20120;-67
2023/03/09 09:14:00;;;;;;;26.45;10.73;;;;;;;-144.73;76.75;54438.50;4970431;28;20030;-67
2023/03/09 09:16:28;;;;;;;20.40;10.63;;;;;;;-144.73;76.83;54477.47;4987808;28;20043;-67
2023/03/09 09:18:54;;;;;;;19.80;10.65;;;;;;;-144.73;76.99;54469.28;4978682;28;20463;-67
2023/03/09 09:21:20;;;;;;;18.80;10.25;;;;;;;-144.73;77.04;54428.22;5006555;28;20041;-68
2023/03/09 09:23:46;;;;;;;19.25;9.70;;;;;;;-144.73;77.34;54436.44;4990232;28;20061;-68
2023/03/09 09:26:12;;;;;;;15.95;8.95;;;;;;;-144.73;76.50;54461.06;4980856;28;20043;-67
2023/03/09 09:28:38;;;;;;;21.00;10.65;;;;;;;-144.73;75.38;54461.06;4987527;28;20071;-69
2023/03/09 09:31:04;;;;;;;21.02;9.93;;;;;;;-144.73;74.08;54448.75;4970371;28;20042;-69
2023/03/09 09:33:32;;;;;;;18.25;9.80;;;;;;;-144.73;74.03;54469.28;4971349;28;20026;-69
2023/03/09 09:35:59;;;;;;;18.92;9.77;;;;;;;-144.73;74.20;54467.22;4970462;28;20034;-68
2023/03/09 09:38:27;;;;;;;20.42;10.07;;;;;;;-144.73;74.57;54442.59;4969945;28;20146;-69
2023/03/09 09:40:54;;;;;;;16.20;8.88;;;;;;;-144.73;74.62;54465.16;4970526;28;20026;-68
2023/03/09 09:43:22;;;;;;;22.77;9.98;;;;;;;-144.73;73.94;54461.06;4986265;28;20117;-67
2023/03/09 09:45:48;;;;;;;23.05;9.98;;;;;;;-144.73;73.93;54481.59;4984888;28;20037;-69
2023/03/09 09:48:17;;;;;;;23.35;10.07;;;;;;;-144.73;73.16;54411.81;5006479;28;20061;-67
2023/03/09 09:51:19;;;;;;;15.00;8.73;;;;;;;-144.73;73.63;54420.00;4989554;28;20029;-67
2023/03/09 09:54:12;;;;;;;23.63;10.27;;;;;;;-144.73;73.72;54440.53;4999810;28;20053;-67
2023/03/09 09:56:57;;;;;;;14.32;9.13;;;;;;;-144.73;74.56;54448.75;4978352;28;20065;-67
2023/03/09 09:59:36;;;;;;;16.58;9.63;;;;;;;-144.73;73.49;54444.66;4987774;28;20033;-69
2023/03/09 10:02:08;;;;;;;15.25;9.40;;;;;;;-144.73;73.28;54444.66;4986745;28;20113;-67
2023/03/09 10:04:40;;;;;;;14.15;8.57;;;;;;;-144.73;72.33;54444.66;4970750;28;20042;-67
2023/03/09 10:07:17;;;;;;;17.25;9.00;;;;;;;-144.73;71.83;54442.59;4970049;28;20026;-67
2023/03/09 10:09:47;;;;;;;17.85;9.52;;;;;;;-144.73;71.88;54420.00;4970373;28;20508;-67
2023/03/09 10:12:14;;;;;;;21.05;9.82;;;;;;;-144.73;72.53;54456.97;4970996;28;20053;-67
2023/03/09 10:14:54;;;;;;;15.55;8.07;;;;;;;-144.73;71.62;54493.91;4986505;28;20030;-67
2023/03/09 10:17:30;;;;;;;16.80;9.13;;;;;;;-144.73;71.69;54448.75;4970371;28;20065;-68
2023/03/09 10:20:08;;;;;;;16.08;9.15;;;;;;;-144.73;70.78;54432.31;4969977;28;20034;-69
2023/03/09 10:22:34;;;;;;;14.48;9.20;;;;;;;-144.73;71.03;54465.16;4985629;28;20163;-68
2023/03/09 10:24:59;;;;;;;15.57;8.52;;;;;;;-144.73;70.46;54432.31;4975894;28;20051;-68
2023/03/09 10:27:38;;;;;;;20.55;9.55;;;;;;;-144.73;70.07;54485.69;5002315;28;20026;-68
2023/03/09 10:30:09;;;;;;;18.90;8.80;;;;;;;-144.73;70.18;54473.38;4986017;28;20018;-69
2023/03/09 10:32:38;;;;;;;16.13;9.57;;;;;;;-144.73;69.67;54477.47;4969105;28;20038;-69
2023/03/09 10:35:21;;;;;;;16.73;8.32;;;;;;;-144.73;69.59;54465.16;4995503;28;20086;-69
2023/03/09 10:37:49;;;;;;;15.52;8.15;;;;;;;-144.73;69.89;54477.47;4981124;28;20031;-70
2023/03/09 10:40:19;;;;;;;13.93;8.57;;;;;;;-144.73;69.47;54452.84;4991179;28;20033;-69
2023/03/09 10:42:44;;;;;;;13.88;8.73;;;;;;;-144.73;69.48;54489.81;4973346;28;20053;-69
2023/03/09 10:45:22;;;;;;;13.73;8.38;;;;;;;-144.73;68.36;54407.69;4978807;28;20034;-68
2023/03/09 10:47:52;;;;;;;17.10;9.73;;;;;;;-144.73;69.25;54448.75;4981943;28;20054;-69
2023/03/09 10:50:18;;;;;;;15.38;8.60;;;;;;;-144.73;69.40;54469.28;4966615;28;20057;-68
2023/03/09 10:52:43;;;;;;;17.25;9.35;;;;;;;-144.73;69.03;54473.38;4990730;28;20066;-68
2023/03/09 10:55:36;;;;;;;21.65;9.95;;;;;;;-144.73;68.18;54448.75;4999296;28;20395;-69
2023/03/09 10:58:22;;;;;;;11.45;7.15;;;;;;;-144.73;67.39;54428.22;4970415;28;20042;-69
2023/03/09 11:01:18;;;;;;;16.48;8.50;;;;;;;-144.73;66.95;54407.69;4994779;28;20113;-70
2023/03/09 11:03:44;;;;;;;15.20;8.75;;;;;;;-144.73;67.29;54456.97;4991271;28;20113;-70
2023/03/09 11:06:19;;;;;;;21.58;8.48;;;;;;;-144.73;66.26;54463.13;4991106;28;20064;-68